sensor_id;sensor_type;location;lat;lon;timestamp;pressure;altitude;pressure_sealevel;temperature;humidity
37202;BME280;37799;52.390;6.136;2023-04-01T00:00:16;99046.44;;;9.84;100.00
37202;BME280;37799;52.390;6.136;2023-04-01T00:02:42;99045.28;;;9.89;100.00
37202;BME280;37799;52.390;6.136;2023-04-01T00:05:08;99040.09;;;9.89;100.00
37202;BME280;37799;52.390;6.136;2023-04-01T00:07:35;99043.81;;;9.68;100.00
37202;BME280;37799;52.390;6.136;2023-04-01T00:10:01;99039.06;;;9.76;100.00
37202;BME280;37799;52.390;6.136;2023-04-01T00:12:27;99038.75;;;9.82;100.00
37202;BME280;37799;52.390;6.136;2023-04-01T00:14:52;99048.94;;;9.85;100.00
37202;BME280;37799;52.390;6.136;2023-04-01T00:17:17;99038.72;;;9.66;100.00
37202;BME280;37799;52.390;6.136;2023-04-01T00:19:43;99042.56;;;9.75;100.00
37202;BME280;37799;52.390;6.136;2023-04-01T00:22:08;99045.94;;;9.77;100.00
37202;BME280;37799;52.390;6.136;2023-04-01T00:24:37;99034.13;;;9.71;100.00
37202;BME280;37799;52.390;6.136;2023-04-01T00:27:03;99048.78;;;9.88;100.00
37202;BME280;37799;52.390;6.136;2023-04-01T00:29:28;99043.81;;;9.68;100.00
37202;BME280;37799;52.390;6.136;2023-04-01T00:31:56;99042.50;;;9.77;100.00
37202;BME280;37799;52.390;6.136;2023-04-01T00:34:22;99042.94;;;9.85;100.00
37202;BME280;37799;52.390;6.136;2023-04-01T00:36:47;99042.09;;;9.84;100.00
37202;BME280;37799;52.390;6.136;2023-04-01T00:39:12;99040.75;;;9.77;100.00
37202;BME280;37799;52.390;6.136;2023-04-01T00:41:38;99047.69;;;9.77;100.00
37202;BME280;37799;52.390;6.136;2023-04-01T00:44:16;99035.81;;;9.72;100.00
37202;BME280;37799;52.390;6.136;2023-04-01T00:46:43;99042.66;;;9.73;100.00
37202;BME280;37799;52.390;6.136;2023-04-01T00:49:09;99049.84;;;9.84;100.00
37202;BME280;37799;52.390;6.136;2023-04-01T00:51:34;99048.03;;;9.86;100.00
37202;BME280;37799;52.390;6.136;2023-04-01T00:54:03;99054.19;;;9.84;100.00
37202;BME280;37799;52.390;6.136;2023-04-01T00:56:36;99057.31;;;9.90;100.00
37202;BME280;37799;52.390;6.136;2023-04-01T00:59:09;99055.69;;;10.05;100.00
37202;BME280;37799;52.390;6.136;2023-04-01T01:01:36;99053.03;;;9.89;100.00
37202;BME280;37799;52.390;6.136;2023-04-01T01:04:02;99049.81;;;10.01;100.00
37202;BME280;37799;52.390;6.136;2023-04-01T01:09:15;99056.19;;;9.79;100.00
37202;BME280;37799;52.390;6.136;2023-04-01T01:12:06;99045.78;;;9.80;100.00
37202;BME280;37799;52.390;6.136;2023-04-01T01:17:13;99054.22;;;9.66;100.00
37202;BME280;37799;52.390;6.136;2023-04-01T01:20:03;99067.50;;;9.76;100.00
37202;BME280;37799;52.390;6.136;2023-04-01T01:25:29;99061.94;;;9.84;100.00
37202;BME280;37799;52.390;6.136;2023-04-01T01:31:12;99057.81;;;9.97;100.00
37202;BME280;37799;52.390;6.136;2023-04-01T01:36:12;99054.13;;;9.85;100.00
37202;BME280;37799;52.390;6.136;2023-04-01T01:38:39;99061.44;;;9.77;100.00
37202;BME280;37799;52.390;6.136;2023-04-01T01:41:06;99060.06;;;9.70;100.00
37202;BME280;37799;52.390;6.136;2023-04-01T01:43:39;99064.31;;;9.71;100.00
37202;BME280;37799;52.390;6.136;2023-04-01T01:46:11;99072.22;;;9.85;100.00
37202;BME280;37799;52.390;6.136;2023-04-01T01:48:38;99065.78;;;9.77;100.00
37202;BME280;37799;52.390;6.136;2023-04-01T01:51:08;99073.97;;;9.67;100.00
37202;BME280;37799;52.390;6.136;2023-04-01T01:53:33;99067.91;;;9.68;100.00
37202;BME280;37799;52.390;6.136;2023-04-01T01:55:58;99071.63;;;9.80;100.00
37202;BME280;37799;52.390;6.136;2023-04-01T01:58:33;99080.50;;;9.74;100.00
37202;BME280;37799;52.390;6.136;2023-04-01T02:01:07;99069.56;;;9.69;100.00
37202;BME280;37799;52.390;6.136;2023-04-01T02:03:37;99072.81;;;9.73;100.00
37202;BME280;37799;52.390;6.136;2023-04-01T02:06:07;99075.41;;;9.73;100.00
37202;BME280;37799;52.390;6.136;2023-04-01T02:11:04;99078.16;;;9.70;100.00
37202;BME280;37799;52.390;6.136;2023-04-01T02:13:40;99089.09;;;9.75;100.00
37202;BME280;37799;52.390;6.136;2023-04-01T02:16:13;99084.31;;;9.67;100.00
37202;BME280;37799;52.390;6.136;2023-04-01T02:18:42;99084.06;;;9.72;100.00
37202;BME280;37799;52.390;6.136;2023-04-01T02:21:10;99088.13;;;9.78;100.00
37202;BME280;37799;52.390;6.136;2023-04-01T02:23:37;99093.50;;;9.90;100.00
37202;BME280;37799;52.390;6.136;2023-04-01T02:26:06;99093.44;;;9.92;100.00
37202;BME280;37799;52.390;6.136;2023-04-01T02:28:33;99099.06;;;9.83;100.00
37202;BME280;37799;52.390;6.136;2023-04-01T02:30:59;99088.38;;;9.89;100.00
37202;BME280;37799;52.390;6.136;2023-04-01T02:33:28;99096.69;;;9.95;100.00
37202;BME280;37799;52.390;6.136;2023-04-01T02:35:53;99096.63;;;9.80;100.00
37202;BME280;37799;52.390;6.136;2023-04-01T02:38:19;99096.00;;;9.74;100.00
37202;BME280;37799;52.390;6.136;2023-04-01T02:40:50;99104.59;;;9.75;100.00
37202;BME280;37799;52.390;6.136;2023-04-01T02:43:16;99096.72;;;9.78;100.00
37202;BME280;37799;52.390;6.136;2023-04-01T02:45:43;99104.59;;;9.92;100.00
37202;BME280;37799;52.390;6.136;2023-04-01T02:48:08;99109.47;;;9.81;100.00
37202;BME280;37799;52.390;6.136;2023-04-01T02:50:34;99104.59;;;9.75;100.00
37202;BME280;37799;52.390;6.136;2023-04-01T02:53:00;99109.56;;;9.80;100.00
37202;BME280;37799;52.390;6.136;2023-04-01T02:55:26;99112.22;;;9.78;100.00
37202;BME280;37799;52.390;6.136;2023-04-01T02:57:51;99110.97;;;9.85;100.00
37202;BME280;37799;52.390;6.136;2023-04-01T03:00:17;99111.91;;;9.84;100.00
37202;BME280;37799;52.390;6.136;2023-04-01T03:02:42;99113.19;;;9.93;100.00
37202;BME280;37799;52.390;6.136;2023-04-01T03:05:09;99115.25;;;9.86;100.00
37202;BME280;37799;52.390;6.136;2023-04-01T03:07:35;99115.28;;;10.02;100.00
37202;BME280;37799;52.390;6.136;2023-04-01T03:10:00;99114.56;;;9.83;100.00
37202;BME280;37799;52.390;6.136;2023-04-01T03:12:25;99116.59;;;9.76;100.00
37202;BME280;37799;52.390;6.136;2023-04-01T03:14:51;99117.91;;;9.85;100.00
37202;BME280;37799;52.390;6.136;2023-04-01T03:17:16;99119.91;;;9.80;100.00
37202;BME280;37799;52.390;6.136;2023-04-01T03:19:41;99126.91;;;9.78;100.00
37202;BME280;37799;52.390;6.136;2023-04-01T03:22:09;99132.97;;;9.77;100.00
37202;BME280;37799;52.390;6.136;2023-04-01T03:24:35;99130.25;;;9.80;100.00
37202;BME280;37799;52.390;6.136;2023-04-01T03:27:01;99134.56;;;9.79;100.00
37202;BME280;37799;52.390;6.136;2023-04-01T03:29:26;99136.41;;;9.77;100.00
37202;BME280;37799;52.390;6.136;2023-04-01T03:31:51;99139.13;;;9.74;100.00
37202;BME280;37799;52.390;6.136;2023-04-01T03:34:17;99137.22;;;9.78;100.00
37202;BME280;37799;52.390;6.136;2023-04-01T03:36:42;99134.69;;;9.76;100.00
37202;BME280;37799;52.390;6.136;2023-04-01T03:39:07;99138.81;;;9.80;100.00
37202;BME280;37799;52.390;6.136;2023-04-01T03:41:35;99142.00;;;9.85;100.00
37202;BME280;37799;52.390;6.136;2023-04-01T03:44:01;99147.63;;;9.76;100.00
37202;BME280;37799;52.390;6.136;2023-04-01T03:46:26;99138.81;;;9.80;100.00
37202;BME280;37799;52.390;6.136;2023-04-01T03:48:51;99150.28;;;9.74;100.00
37202;BME280;37799;52.390;6.136;2023-04-01T03:51:17;99147.78;;;9.73;100.00
37202;BME280;37799;52.390;6.136;2023-04-01T03:53:42;99160.88;;;9.70;100.00
37202;BME280;37799;52.390;6.136;2023-04-01T03:56:08;99156.75;;;9.66;100.00
37202;BME280;37799;52.390;6.136;2023-04-01T03:58:34;99162.63;;;9.69;100.00
37202;BME280;37799;52.390;6.136;2023-04-01T04:00:59;99165.28;;;9.68;100.00
37202;BME280;37799;52.390;6.136;2023-04-01T04:03:25;99159.28;;;9.67;100.00
37202;BME280;37799;52.390;6.136;2023-04-01T04:05:51;99159.88;;;10.07;100.00
37202;BME280;37799;52.390;6.136;2023-04-01T04:08:16;99163.28;;;9.73;100.00
37202;BME280;37799;52.390;6.136;2023-04-01T04:10:42;99163.69;;;9.65;100.00
37202;BME280;37799;52.390;6.136;2023-04-01T04:13:08;99167.38;;;9.60;100.00
37202;BME280;37799;52.390;6.136;2023-04-01T04:15:33;99175.28;;;9.57;100.00
37202;BME280;37799;52.390;6.136;2023-04-01T04:17:58;99172.72;;;9.57;100.00
37202;BME280;37799;52.390;6.136;2023-04-01T04:20:24;99170.13;;;9.74;100.00
37202;BME280;37799;52.390;6.136;2023-04-01T04:22:50;99172.72;;;9.57;100.00
37202;BME280;37799;52.390;6.136;2023-04-01T04:25:15;99176.13;;;9.57;100.00
37202;BME280;37799;52.390;6.136;2023-04-01T04:27:40;99174.38;;;9.58;100.00
37202;BME280;37799;52.390;6.136;2023-04-01T04:30:07;99180.81;;;9.49;100.00
37202;BME280;37799;52.390;6.136;2023-04-01T04:32:33;99188.53;;;9.51;100.00
37202;BME280;37799;52.390;6.136;2023-04-01T04:34:59;99192.13;;;9.46;100.00
37202;BME280;37799;52.390;6.136;2023-04-01T04:37:24;99185.03;;;9.52;100.00
37202;BME280;37799;52.390;6.136;2023-04-01T04:39:51;99196.31;;;9.49;100.00
37202;BME280;37799;52.390;6.136;2023-04-01T04:42:16;99198.97;;;9.48;100.00
37202;BME280;37799;52.390;6.136;2023-04-01T04:44:41;99197.16;;;9.50;100.00
37202;BME280;37799;52.390;6.136;2023-04-01T04:47:07;99197.09;;;9.51;100.00
37202;BME280;37799;52.390;6.136;2023-04-01T04:49:32;99206.44;;;9.54;100.00
37202;BME280;37799;52.390;6.136;2023-04-01T04:51:57;99207.44;;;9.51;100.00
37202;BME280;37799;52.390;6.136;2023-04-01T04:54:23;99201.44;;;9.51;100.00
37202;BME280;37799;52.390;6.136;2023-04-01T04:56:51;99215.19;;;9.51;100.00
37202;BME280;37799;52.390;6.136;2023-04-01T04:59:16;99219.38;;;9.54;100.00
37202;BME280;37799;52.390;6.136;2023-04-01T05:01:41;99208.28;;;9.52;100.00
37202;BME280;37799;52.390;6.136;2023-04-01T05:04:07;99219.22;;;9.57;100.00
37202;BME280;37799;52.390;6.136;2023-04-01T05:06:32;99223.56;;;9.56;100.00
37202;BME280;37799;52.390;6.136;2023-04-01T05:08:57;99224.38;;;9.57;100.00
37202;BME280;37799;52.390;6.136;2023-04-01T05:11:23;99226.66;;;9.63;100.00
37202;BME280;37799;52.390;6.136;2023-04-01T05:13:48;99230.66;;;9.70;100.00
37202;BME280;37799;52.390;6.136;2023-04-01T05:16:17;99230.88;;;9.65;100.00
37202;BME280;37799;52.390;6.136;2023-04-01T05:18:44;99235.41;;;9.60;100.00
37202;BME280;37799;52.390;6.136;2023-04-01T05:21:10;99241.34;;;9.62;100.00
37202;BME280;37799;52.390;6.136;2023-04-01T05:23:36;99238.16;;;9.57;100.00
37202;BME280;37799;52.390;6.136;2023-04-01T05:26:07;99236.31;;;9.59;100.00
37202;BME280;37799;52.390;6.136;2023-04-01T05:28:32;99238.91;;;9.59;100.00
37202;BME280;37799;52.390;6.136;2023-04-01T05:30:59;99245.41;;;9.68;100.00
37202;BME280;37799;52.390;6.136;2023-04-01T05:33:26;99240.50;;;9.62;100.00
37202;BME280;37799;52.390;6.136;2023-04-01T05:35:52;99250.84;;;9.62;100.00
37202;BME280;37799;52.390;6.136;2023-04-01T05:38:18;99251.75;;;9.61;100.00
37202;BME280;37799;52.390;6.136;2023-04-01T05:40:43;99256.00;;;9.62;100.00
37202;BME280;37799;52.390;6.136;2023-04-01T05:43:08;99263.50;;;9.68;100.00
37202;BME280;37799;52.390;6.136;2023-04-01T05:45:34;99265.31;;;9.66;100.00
37202;BME280;37799;52.390;6.136;2023-04-01T05:47:59;99272.00;;;9.70;100.00
37202;BME280;37799;52.390;6.136;2023-04-01T05:50:25;99268.59;;;9.69;100.00
37202;BME280;37799;52.390;6.136;2023-04-01T05:53:02;99273.81;;;9.68;100.00
37202;BME280;37799;52.390;6.136;2023-04-01T05:55:28;99274.66;;;9.68;100.00
37202;BME280;37799;52.390;6.136;2023-04-01T05:57:54;99275.28;;;9.73;100.00
37202;BME280;37799;52.390;6.136;2023-04-01T06:00:21;99281.28;;;9.74;100.00
37202;BME280;37799;52.390;6.136;2023-04-01T06:02:47;99288.91;;;9.77;100.00
37202;BME280;37799;52.390;6.136;2023-04-01T06:05:26;99289.66;;;9.79;100.00
37202;BME280;37799;52.390;6.136;2023-04-01T06:07:57;99295.59;;;9.81;100.00
37202;BME280;37799;52.390;6.136;2023-04-01T06:21:30;99309.13;;;9.86;100.00
37202;BME280;37799;52.390;6.136;2023-04-01T06:26:54;99320.56;;;9.99;100.00
37202;BME280;37799;52.390;6.136;2023-04-01T06:29:39;99318.00;;;9.99;100.00
37202;BME280;37799;52.390;6.136;2023-04-01T06:40:55;99334.75;;;10.10;100.00
37202;BME280;37799;52.390;6.136;2023-04-01T06:43:41;99342.22;;;10.16;100.00
37202;BME280;37799;52.390;6.136;2023-04-01T06:46:31;99342.50;;;10.10;100.00
37202;BME280;37799;52.390;6.136;2023-04-01T06:49:36;99341.25;;;10.18;100.00
37202;BME280;37799;52.390;6.136;2023-04-01T06:52:36;99345.69;;;10.15;100.00
37202;BME280;37799;52.390;6.136;2023-04-01T06:55:32;99350.59;;;10.21;100.00
37202;BME280;37799;52.390;6.136;2023-04-01T06:58:04;99347.38;;;10.34;100.00
37202;BME280;37799;52.390;6.136;2023-04-01T07:00:43;99356.56;;;10.40;100.00
37202;BME280;37799;52.390;6.136;2023-04-01T07:03:36;99361.75;;;10.40;100.00
37202;BME280;37799;52.390;6.136;2023-04-01T07:06:13;99366.31;;;10.52;100.00
37202;BME280;37799;52.390;6.136;2023-04-01T07:08:41;99368.78;;;10.55;100.00
37202;BME280;37799;52.390;6.136;2023-04-01T07:11:25;99369.91;;;10.67;100.00
37202;BME280;37799;52.390;6.136;2023-04-01T07:13:55;99373.88;;;10.74;100.00
37202;BME280;37799;52.390;6.136;2023-04-01T07:16:36;99379.72;;;10.78;100.00
37202;BME280;37799;52.390;6.136;2023-04-01T07:19:12;99381.28;;;10.82;100.00
37202;BME280;37799;52.390;6.136;2023-04-01T07:21:48;99388.22;;;10.81;100.00
37202;BME280;37799;52.390;6.136;2023-04-01T07:24:37;99394.81;;;10.87;100.00
37202;BME280;37799;52.390;6.136;2023-04-01T07:27:09;99394.66;;;10.90;100.00
37202;BME280;37799;52.390;6.136;2023-04-01T07:29:36;99404.09;;;10.91;100.00
37202;BME280;37799;52.390;6.136;2023-04-01T07:35:34;99412.34;;;10.99;100.00
37202;BME280;37799;52.390;6.136;2023-04-01T07:41:16;99420.41;;;10.93;100.00
37202;BME280;37799;52.390;6.136;2023-04-01T07:46:48;99433.53;;;11.07;100.00
37202;BME280;37799;52.390;6.136;2023-04-01T07:51:56;99436.69;;;11.30;100.00
37202;BME280;37799;52.390;6.136;2023-04-01T07:57:05;99444.88;;;11.55;100.00
37202;BME280;37799;52.390;6.136;2023-04-01T07:59:49;99440.31;;;11.60;100.00
37202;BME280;37799;52.390;6.136;2023-04-01T08:07:53;99461.06;;;11.76;100.00
37202;BME280;37799;52.390;6.136;2023-04-01T08:21:49;99481.91;;;12.39;100.00
37202;BME280;37799;52.390;6.136;2023-04-01T08:24:27;99481.00;;;12.40;100.00
37202;BME280;37799;52.390;6.136;2023-04-01T08:26:58;99487.41;;;12.49;100.00
37202;BME280;37799;52.390;6.136;2023-04-01T08:29:40;99483.34;;;12.45;100.00
37202;BME280;37799;52.390;6.136;2023-04-01T08:32:23;99490.03;;;12.49;100.00
37202;BME280;37799;52.390;6.136;2023-04-01T08:35:26;99499.91;;;12.58;100.00
37202;BME280;37799;52.390;6.136;2023-04-01T08:37:55;99498.81;;;12.62;100.00
37202;BME280;37799;52.390;6.136;2023-04-01T08:48:52;99521.22;;;12.94;100.00
37202;BME280;37799;52.390;6.136;2023-04-01T08:54:45;99522.78;;;13.13;100.00
37202;BME280;37799;52.390;6.136;2023-04-01T09:27:26;99561.44;;;14.91;100.00
37202;BME280;37799;52.390;6.136;2023-04-01T09:46:16;99588.06;;;13.38;100.00
37202;BME280;37799;52.390;6.136;2023-04-01T09:49:11;99587.41;;;13.35;100.00
37202;BME280;37799;52.390;6.136;2023-04-01T09:51:52;99596.78;;;13.37;100.00
37202;BME280;37799;52.390;6.136;2023-04-01T10:01:02;99603.72;;;13.82;100.00
37202;BME280;37799;52.390;6.136;2023-04-01T10:06:43;99607.78;;;13.72;100.00
37202;BME280;37799;52.390;6.136;2023-04-01T10:21:50;99631.69;;;13.02;100.00
37202;BME280;37799;52.390;6.136;2023-04-01T10:36:44;99645.41;;;14.39;100.00
37202;BME280;37799;52.390;6.136;2023-04-01T10:39:38;99645.25;;;14.57;100.00
37202;BME280;37799;52.390;6.136;2023-04-01T10:48:14;99659.53;;;14.07;100.00
37202;BME280;37799;52.390;6.136;2023-04-01T10:51:08;99652.44;;;13.65;100.00
37202;BME280;37799;52.390;6.136;2023-04-01T10:53:42;99668.28;;;13.30;100.00
37202;BME280;37799;52.390;6.136;2023-04-01T11:04:30;99678.28;;;12.73;100.00
37202;BME280;37799;52.390;6.136;2023-04-01T11:18:31;99689.94;;;12.49;100.00
37202;BME280;37799;52.390;6.136;2023-04-01T11:27:00;99703.63;;;12.52;100.00
37202;BME280;37799;52.390;6.136;2023-04-01T11:29:54;99703.03;;;12.63;100.00
37202;BME280;37799;52.390;6.136;2023-04-01T11:32:42;99698.94;;;12.59;100.00
37202;BME280;37799;52.390;6.136;2023-04-01T11:38:07;99712.31;;;12.84;100.00
37202;BME280;37799;52.390;6.136;2023-04-01T11:43:19;99725.41;;;12.98;100.00
37202;BME280;37799;52.390;6.136;2023-04-01T12:02:42;99755.53;;;12.69;100.00
37202;BME280;37799;52.390;6.136;2023-04-01T12:05:47;99764.00;;;12.73;100.00
37202;BME280;37799;52.390;6.136;2023-04-01T12:11:29;99776.50;;;12.82;100.00
37202;BME280;37799;52.390;6.136;2023-04-01T12:19:44;99786.72;;;13.03;100.00
37202;BME280;37799;52.390;6.136;2023-04-01T12:22:29;99791.44;;;13.27;100.00
37202;BME280;37799;52.390;6.136;2023-04-01T12:28:23;99798.69;;;13.54;100.00
37202;BME280;37799;52.390;6.136;2023-04-01T12:31:17;99806.66;;;13.35;100.00
37202;BME280;37799;52.390;6.136;2023-04-01T12:36:49;99819.41;;;13.40;100.00
37202;BME280;37799;52.390;6.136;2023-04-01T12:39:29;99818.72;;;13.36;100.00
37202;BME280;37799;52.390;6.136;2023-04-01T12:42:21;99825.25;;;13.27;100.00
37202;BME280;37799;52.390;6.136;2023-04-01T12:51:15;99831.72;;;13.03;100.00
37202;BME280;37799;52.390;6.136;2023-04-01T13:02:27;99855.25;;;13.00;100.00
37202;BME280;37799;52.390;6.136;2023-04-01T13:08:32;99860.66;;;12.80;100.00
37202;BME280;37799;52.390;6.136;2023-04-01T13:11:09;99866.44;;;12.85;100.00
37202;BME280;37799;52.390;6.136;2023-04-01T13:16:37;99884.41;;;12.89;100.00
37202;BME280;37799;52.390;6.136;2023-04-01T13:19:10;99888.75;;;12.89;100.00
37202;BME280;37799;52.390;6.136;2023-04-01T13:21:59;99887.38;;;12.82;100.00
37202;BME280;37799;52.390;6.136;2023-04-01T13:24:35;99892.34;;;12.86;100.00
37202;BME280;37799;52.390;6.136;2023-04-01T13:27:18;99905.94;;;12.74;100.00
37202;BME280;37799;52.390;6.136;2023-04-01T13:30:05;99909.56;;;12.35;100.00
37202;BME280;37799;52.390;6.136;2023-04-01T13:32:44;99919.59;;;12.43;100.00
37202;BME280;37799;52.390;6.136;2023-04-01T13:41:04;99925.63;;;11.89;100.00
37202;BME280;37799;52.390;6.136;2023-04-01T13:43:42;99929.84;;;11.71;100.00
37202;BME280;37799;52.390;6.136;2023-04-01T13:46:58;99940.78;;;11.77;100.00
37202;BME280;37799;52.390;6.136;2023-04-01T13:49:31;99944.25;;;11.58;100.00
37202;BME280;37799;52.390;6.136;2023-04-01T13:58:13;99955.22;;;11.44;100.00
37202;BME280;37799;52.390;6.136;2023-04-01T14:09:20;99966.44;;;11.44;100.00
37202;BME280;37799;52.390;6.136;2023-04-01T14:17:35;99979.88;;;11.13;100.00
37202;BME280;37799;52.390;6.136;2023-04-01T14:20:29;99989.09;;;11.20;100.00
37202;BME280;37799;52.390;6.136;2023-04-01T14:31:18;100006.91;;;11.08;100.00
37202;BME280;37799;52.390;6.136;2023-04-01T14:42:56;100031.22;;;11.04;100.00
37202;BME280;37799;52.390;6.136;2023-04-01T14:45:45;100038.53;;;10.94;100.00
37202;BME280;37799;52.390;6.136;2023-04-01T14:51:21;100033.16;;;10.77;100.00
37202;BME280;37799;52.390;6.136;2023-04-01T14:53:59;100041.22;;;10.91;100.00
37202;BME280;37799;52.390;6.136;2023-04-01T14:57:11;100050.81;;;10.89;100.00
37202;BME280;37799;52.390;6.136;2023-04-01T15:05:24;100066.84;;;10.77;100.00
37202;BME280;37799;52.390;6.136;2023-04-01T15:08:22;100083.53;;;10.70;100.00
37202;BME280;37799;52.390;6.136;2023-04-01T15:16:54;100095.25;;;10.56;100.00
37202;BME280;37799;52.390;6.136;2023-04-01T15:19:37;100103.00;;;10.56;100.00
37202;BME280;37799;52.390;6.136;2023-04-01T15:24:56;100112.06;;;10.68;100.00
37202;BME280;37799;52.390;6.136;2023-04-01T15:30:22;100122.63;;;10.85;100.00
37202;BME280;37799;52.390;6.136;2023-04-01T15:38:34;100137.44;;;10.58;100.00
37202;BME280;37799;52.390;6.136;2023-04-01T15:41:24;100150.66;;;10.51;100.00
37202;BME280;37799;52.390;6.136;2023-04-01T15:43:54;100156.06;;;10.45;100.00
37202;BME280;37799;52.390;6.136;2023-04-01T15:46:29;100162.69;;;10.52;100.00
37202;BME280;37799;52.390;6.136;2023-04-01T15:57:25;100196.09;;;10.10;100.00
37202;BME280;37799;52.390;6.136;2023-04-01T16:00:17;100190.72;;;10.16;100.00
37202;BME280;37799;52.390;6.136;2023-04-01T16:02:48;100210.47;;;10.18;100.00
37202;BME280;37799;52.390;6.136;2023-04-01T16:07:55;100212.41;;;10.12;100.00
37202;BME280;37799;52.390;6.136;2023-04-01T16:13:24;100224.28;;;9.92;100.00
37202;BME280;37799;52.390;6.136;2023-04-01T16:27:24;100249.22;;;9.93;100.00
37202;BME280;37799;52.390;6.136;2023-04-01T16:30:01;100262.28;;;9.89;100.00
37202;BME280;37799;52.390;6.136;2023-04-01T16:32:38;100264.25;;;9.82;100.00
37202;BME280;37799;52.390;6.136;2023-04-01T16:43:25;100281.03;;;9.69;100.00
37202;BME280;37799;52.390;6.136;2023-04-01T16:56:54;100311.00;;;9.46;100.00
37202;BME280;37799;52.390;6.136;2023-04-01T16:59:40;100319.72;;;9.44;100.00
37202;BME280;37799;52.390;6.136;2023-04-01T17:02:14;100330.63;;;9.54;100.00
37202;BME280;37799;52.390;6.136;2023-04-01T17:05:09;100335.31;;;9.41;100.00
37202;BME280;37799;52.390;6.136;2023-04-01T17:07:46;100335.34;;;9.39;100.00
37202;BME280;37799;52.390;6.136;2023-04-01T17:16:10;100358.41;;;9.16;100.00
37202;BME280;37799;52.390;6.136;2023-04-01T17:18:50;100370.56;;;9.11;100.00
37202;BME280;37799;52.390;6.136;2023-04-01T17:24:27;100385.28;;;9.09;100.00
37202;BME280;37799;52.390;6.136;2023-04-01T17:30:08;100392.59;;;8.93;100.00
37202;BME280;37799;52.390;6.136;2023-04-01T17:33:00;100401.34;;;8.88;100.00
37202;BME280;37799;52.390;6.136;2023-04-01T17:35:53;100406.56;;;8.86;100.00
37202;BME280;37799;52.390;6.136;2023-04-01T17:38:37;100419.53;;;8.83;100.00
37202;BME280;37799;52.390;6.136;2023-04-01T17:44:04;100430.69;;;8.83;100.00
37202;BME280;37799;52.390;6.136;2023-04-01T17:49:53;100444.59;;;8.79;100.00
37202;BME280;37799;52.390;6.136;2023-04-01T17:52:37;100458.16;;;8.88;100.00
37202;BME280;37799;52.390;6.136;2023-04-01T18:06:21;100479.47;;;8.60;100.00
37202;BME280;37799;52.390;6.136;2023-04-01T18:09:00;100494.03;;;8.63;100.00
37202;BME280;37799;52.390;6.136;2023-04-01T18:11:54;100501.06;;;8.56;100.00
37202;BME280;37799;52.390;6.136;2023-04-01T18:20:26;100520.16;;;8.49;100.00
37202;BME280;37799;52.390;6.136;2023-04-01T18:25:44;100536.66;;;8.42;100.00
37202;BME280;37799;52.390;6.136;2023-04-01T18:36:38;100554.91;;;8.31;100.00
37202;BME280;37799;52.390;6.136;2023-04-01T18:39:17;100579.22;;;8.19;100.00
37202;BME280;37799;52.390;6.136;2023-04-01T18:44:39;100589.94;;;7.99;100.00
37202;BME280;37799;52.390;6.136;2023-04-01T18:50:11;100609.06;;;7.88;100.00
37202;BME280;37799;52.390;6.136;2023-04-01T18:52:45;100615.03;;;7.90;100.00
37202;BME280;37799;52.390;6.136;2023-04-01T18:55:34;100620.31;;;7.84;100.00
37202;BME280;37799;52.390;6.136;2023-04-01T18:58:12;100626.00;;;8.01;100.00
37202;BME280;37799;52.390;6.136;2023-04-01T19:00:45;100634.19;;;7.77;100.00
37202;BME280;37799;52.390;6.136;2023-04-01T19:06:41;100640.31;;;7.71;100.00
37202;BME280;37799;52.390;6.136;2023-04-01T19:09:58;100640.16;;;7.79;100.00
37202;BME280;37799;52.390;6.136;2023-04-01T19:17:58;100671.88;;;7.84;100.00
37202;BME280;37799;52.390;6.136;2023-04-01T19:20:29;100677.13;;;7.78;100.00
37202;BME280;37799;52.390;6.136;2023-04-01T19:25:38;100691.16;;;7.61;100.00
37202;BME280;37799;52.390;6.136;2023-04-01T19:30:59;100699.75;;;7.60;100.00
37202;BME280;37799;52.390;6.136;2023-04-01T19:36:50;100717.72;;;7.65;100.00
37202;BME280;37799;52.390;6.136;2023-04-01T19:39:58;100711.66;;;7.67;100.00
37202;BME280;37799;52.390;6.136;2023-04-01T19:43:02;100719.47;;;7.63;100.00
37202;BME280;37799;52.390;6.136;2023-04-01T19:45:46;100730.53;;;7.68;100.00
37202;BME280;37799;52.390;6.136;2023-04-01T19:54:47;100742.00;;;7.50;100.00
37202;BME280;37799;52.390;6.136;2023-04-01T19:57:38;100754.94;;;7.47;100.00
37202;BME280;37799;52.390;6.136;2023-04-01T20:09:07;100775.75;;;7.32;100.00
37202;BME280;37799;52.390;6.136;2023-04-01T20:14:32;100799.13;;;7.18;100.00
37202;BME280;37799;52.390;6.136;2023-04-01T20:19:34;100807.78;;;7.11;100.00
37202;BME280;37799;52.390;6.136;2023-04-01T20:22:04;100812.00;;;7.18;100.00
37202;BME280;37799;52.390;6.136;2023-04-01T20:24:42;100824.88;;;7.15;100.00
37202;BME280;37799;52.390;6.136;2023-04-01T20:27:18;100836.94;;;7.12;100.00
37202;BME280;37799;52.390;6.136;2023-04-01T20:32:58;100831.06;;;7.03;100.00
37202;BME280;37799;52.390;6.136;2023-04-01T20:35:37;100835.38;;;7.00;100.00
37202;BME280;37799;52.390;6.136;2023-04-01T20:44:12;100864.66;;;6.88;100.00
37202;BME280;37799;52.390;6.136;2023-04-01T20:46:52;100861.31;;;6.82;100.00
37202;BME280;37799;52.390;6.136;2023-04-01T20:52:37;100874.19;;;6.80;100.00
37202;BME280;37799;52.390;6.136;2023-04-01T21:02:02;100894.72;;;6.86;100.00
37202;BME280;37799;52.390;6.136;2023-04-01T21:16:36;100925.72;;;6.74;100.00
37202;BME280;37799;52.390;6.136;2023-04-01T21:35:31;100975.59;;;6.58;100.00
37202;BME280;37799;52.390;6.136;2023-04-01T21:44:08;101002.25;;;6.46;100.00
37202;BME280;37799;52.390;6.136;2023-04-01T21:53:19;101020.31;;;6.37;100.00
37202;BME280;37799;52.390;6.136;2023-04-01T21:56:09;101021.09;;;6.49;100.00
37202;BME280;37799;52.390;6.136;2023-04-01T21:59:00;101025.38;;;6.50;100.00
37202;BME280;37799;52.390;6.136;2023-04-01T22:01:54;101023.75;;;6.40;100.00
37202;BME280;37799;52.390;6.136;2023-04-01T22:04:42;101032.31;;;6.36;100.00
37202;BME280;37799;52.390;6.136;2023-04-01T22:12:42;101049.47;;;6.40;100.00